Air Sicilia Virtual Airways - Route

Air Sicilia Virtual Airways - SIC096L

( ES ) LEAL
Alicante International Airport
ALICANTE ( ALC )
plane_to ( ES ) LEAM
Almería International Airport
ALMERíA ( LEI )
Mediterraneo TOUR VFR - LEG: 16

AIRPORT NEAR NAVIGATION AIDS

Type Name Frequency
VOR-DME Alicante 113800 KHZ
VOR-DME Alicante 114650 KHZ

METAR / TAF
LEAL 180400Z 35003KT 9999 FEW007 23/21 Q1011 NOSIG

RUNWAY INFORMATION

Runway Runway length Runway width Runway elevation Runway displaced threshold Runway heading
10 9842 148 142 0 99.7
28 9842 148 44 0 279.7

AIRPORT FREQUENCIES

Type Name Frequency
APP APP 118.8 MHZ
ATIS ATIS 113.8 MHZ
GND GND 121.7 MHZ
TWR TWR 118.15 MHZ

AIRPORT NEAR NAVIGATION AIDS

Type Name Frequency
NDB Almeria 284 KHZ
NDB Almeria 310 KHZ
VOR-DME Almeria 114100 KHZ

METAR / TAF
LEAM 180400Z 33006KT CAVOK 24/17 Q1010
LEAM 180200Z 1803/1903 VRB03KT CAVOK TX28/1811Z TN24/1902Z BECMG 1806/1808 23010KT

RUNWAY INFORMATION

Runway Runway length Runway width Runway elevation Runway displaced threshold Runway heading
08 10499 148 26 492 73
26 10499 148 70 0 253

AIRPORT FREQUENCIES

Type Name Frequency
APP APP 118.35 MHZ
GND GND 121.7 MHZ
TWR TWR 118.35 MHZ

Flightplan

nessun obbligo

Air Sicilia Virtual Airways Fleets

AVAILABLE AIRCRAFTS for route at this time in Alicante International Airport
C172 - Cessna 172 Skyhawk
( US ) Cessna

Aircraft in fleet: 13

150 NM

Distance in nautical miles.

€ 100,00

Ticket price for this flight.

Nr. 16

Leg



12-11-2018
Aerosoft Airport Rio de Janeiro International V2.0 XP

L'Aeroporto Internazionale di Rio de Janeiro-Galeão (IATA: GIG, ICAO: SBGL), costruito nel 1952 nel quartiere di Ilha do Governador ed intitolato al musicista Antônio Carlos Jobim, è il principale aeroporto internazio ....


15-10-2018
Aerosoft A320 Family professional

La gamma di aeromobili A320 è una delle più comuni nei cieli. Questi aerei di linea a doppio-getto a corto e medio raggio si sono dimostrati convenienti, affidabili e prontamente disponibili, rendendoli le opzioni migl ....


10-10-2018
Motore critico ( Critical Engine )

Il motore critico di un velivolo ad ala fissa multi-motore è il motore che, in caso di guasto, influirebbe negativamente sulle prestazioni o sulla capacità di manovra di un aereo. Sui velivoli ad elica, vi è un ....


04-10-2018
Aerosoft Dortmund XP

Scopri il centro della regione della Ruhr su XPlane 11 - lo scenario Dortmund XP è una ricostruzione completa della città di Dortmund per il simulatore di volo targato Laminar. Oltre all'intera area urbana di Dortmu ....


07-08-2018
Aerosoft Professional Flight Planner PFPX

PFPX - Professional Flight Planner X - è un nuovo ed innovativo strumento di pianificazione del volo sviluppato da piloti e dispatcher del mondo reale. È un'aggiunta preziosa e realistica alla tua esperienza di simulaz ....